sensor_id;sensor_type;location;lat;lon;timestamp;pressure;altitude;pressure_sealevel;temperature;humidity
61568;BME280;47462;59.172;17.196;2022-12-07T00:01:04;100566.13;;;-4.79;78.32
61568;BME280;47462;59.172;17.196;2022-12-07T00:03:29;100475.41;;;-5.32;78.42
61568;BME280;47462;59.172;17.196;2022-12-07T00:05:57;100557.50;;;-4.85;78.28
61568;BME280;47462;59.172;17.196;2022-12-07T00:08:23;100496.41;;;-5.12;78.17
61568;BME280;47462;59.172;17.196;2022-12-07T00:10:48;100549.75;;;-4.88;78.47
61568;BME280;47462;59.172;17.196;2022-12-07T00:13:14;100525.41;;;-5.07;78.36
61568;BME280;47462;59.172;17.196;2022-12-07T00:15:39;100463.41;;;-5.36;78.35
61568;BME280;47462;59.172;17.196;2022-12-07T00:18:05;100544.00;;;-4.82;78.41
61568;BME280;47462;59.172;17.196;2022-12-07T00:20:30;100434.00;;;-5.55;78.14
61568;BME280;47462;59.172;17.196;2022-12-07T00:22:56;100532.06;;;-4.83;78.30
61568;BME280;47462;59.172;17.196;2022-12-07T00:25:21;100531.59;;;-4.98;78.44
61568;BME280;47462;59.172;17.196;2022-12-07T00:27:47;100454.47;;;-5.50;78.39
61568;BME280;47462;59.172;17.196;2022-12-07T00:30:12;100375.53;;;-6.08;78.12
61568;BME280;47462;59.172;17.196;2022-12-07T00:32:37;100529.00;;;-5.00;78.33
61568;BME280;47462;59.172;17.196;2022-12-07T00:35:03;100534.47;;;-4.88;78.43
61568;BME280;47462;59.172;17.196;2022-12-07T00:37:29;100542.94;;;-4.89;78.42
61568;BME280;47462;59.172;17.196;2022-12-07T00:39:54;100510.09;;;-5.08;78.15
61568;BME280;47462;59.172;17.196;2022-12-07T00:42:19;100476.22;;;-5.33;78.42
61568;BME280;47462;59.172;17.196;2022-12-07T00:44:45;100510.81;;;-5.12;78.32
61568;BME280;47462;59.172;17.196;2022-12-07T00:47:12;100528.16;;;-5.00;78.22
61568;BME280;47462;59.172;17.196;2022-12-07T00:49:37;100535.88;;;-4.97;78.31
61568;BME280;47462;59.172;17.196;2022-12-07T00:52:02;100533.28;;;-4.99;77.87
61568;BME280;47462;59.172;17.196;2022-12-07T00:54:28;100507.97;;;-5.22;78.39
61568;BME280;47462;59.172;17.196;2022-12-07T00:56:53;100483.41;;;-5.47;78.03
61568;BME280;47462;59.172;17.196;2022-12-07T00:59:19;100466.75;;;-5.64;77.84
61568;BME280;47462;59.172;17.196;2022-12-07T01:01:44;100530.97;;;-5.18;78.44
61568;BME280;47462;59.172;17.196;2022-12-07T01:04:09;100537.81;;;-5.17;77.99
61568;BME280;47462;59.172;17.196;2022-12-07T01:06:35;100402.28;;;-5.92;78.12
61568;BME280;47462;59.172;17.196;2022-12-07T01:09:00;100496.38;;;-5.39;77.94
61568;BME280;47462;59.172;17.196;2022-12-07T01:11:28;100535.44;;;-5.11;78.10
61568;BME280;47462;59.172;17.196;2022-12-07T01:13:55;100532.06;;;-5.10;78.24
61568;BME280;47462;59.172;17.196;2022-12-07T01:16:22;100469.78;;;-5.49;77.89
61568;BME280;47462;59.172;17.196;2022-12-07T01:18:51;100525.19;;;-5.14;78.04
61568;BME280;47462;59.172;17.196;2022-12-07T01:21:22;100525.19;;;-5.14;78.27
61568;BME280;47462;59.172;17.196;2022-12-07T01:23:48;100533.63;;;-5.15;78.11
61568;BME280;47462;59.172;17.196;2022-12-07T01:26:15;100529.09;;;-5.24;78.16
61568;BME280;47462;59.172;17.196;2022-12-07T01:28:41;100525.06;;;-5.17;78.05
61568;BME280;47462;59.172;17.196;2022-12-07T01:31:11;100526.69;;;-5.20;77.90
61568;BME280;47462;59.172;17.196;2022-12-07T01:33:40;100526.78;;;-5.16;78.07
61568;BME280;47462;59.172;17.196;2022-12-07T01:36:08;100567.28;;;-5.23;78.58
61568;BME280;47462;59.172;17.196;2022-12-07T01:38:33;100529.03;;;-5.26;78.32
61568;BME280;47462;59.172;17.196;2022-12-07T01:41:00;100415.84;;;-5.92;77.86
61568;BME280;47462;59.172;17.196;2022-12-07T01:43:28;100462.63;;;-5.61;78.28
61568;BME280;47462;59.172;17.196;2022-12-07T01:45:54;100528.44;;;-5.18;78.05
61568;BME280;47462;59.172;17.196;2022-12-07T01:48:27;100527.56;;;-5.19;78.27
61568;BME280;47462;59.172;17.196;2022-12-07T01:50:56;100504.94;;;-5.37;78.11
61568;BME280;47462;59.172;17.196;2022-12-07T01:53:25;100515.41;;;-5.28;78.19
61568;BME280;47462;59.172;17.196;2022-12-07T01:55:53;100484.44;;;-5.42;78.22
61568;BME280;47462;59.172;17.196;2022-12-07T01:58:19;100542.03;;;-5.16;78.30
61568;BME280;47462;59.172;17.196;2022-12-07T02:00:45;100523.91;;;-5.27;78.33
61568;BME280;47462;59.172;17.196;2022-12-07T02:03:17;100448.91;;;-5.66;78.45
61568;BME280;47462;59.172;17.196;2022-12-07T02:05:44;100511.94;;;-5.30;78.18
61568;BME280;47462;59.172;17.196;2022-12-07T02:08:12;100520.78;;;-5.18;78.39
61568;BME280;47462;59.172;17.196;2022-12-07T02:10:38;100509.53;;;-5.27;78.24
61568;BME280;47462;59.172;17.196;2022-12-07T02:15:43;100529.03;;;-5.26;78.30
61568;BME280;47462;59.172;17.196;2022-12-07T02:18:42;100476.47;;;-5.52;78.05
61568;BME280;47462;59.172;17.196;2022-12-07T02:21:16;100508.63;;;-5.27;77.95
61568;BME280;47462;59.172;17.196;2022-12-07T02:35:11;100490.97;;;-5.48;78.10
61568;BME280;47462;59.172;17.196;2022-12-07T02:37:45;100498.00;;;-5.41;78.20
61568;BME280;47462;59.172;17.196;2022-12-07T02:40:25;100497.22;;;-5.40;78.23
61568;BME280;47462;59.172;17.196;2022-12-07T02:43:04;100284.69;;;-6.67;78.29
61568;BME280;47462;59.172;17.196;2022-12-07T02:45:34;100478.28;;;-5.48;78.40
61568;BME280;47462;59.172;17.196;2022-12-07T02:48:02;100494.63;;;-5.42;77.88
61568;BME280;47462;59.172;17.196;2022-12-07T02:50:29;100441.22;;;-5.67;77.77
61568;BME280;47462;59.172;17.196;2022-12-07T02:52:54;100416.84;;;-5.88;77.98
61568;BME280;47462;59.172;17.196;2022-12-07T02:55:26;100485.28;;;-5.41;77.75
61568;BME280;47462;59.172;17.196;2022-12-07T02:58:06;100483.56;;;-5.42;77.81
61568;BME280;47462;59.172;17.196;2022-12-07T03:00:48;100482.66;;;-5.44;77.67
61568;BME280;47462;59.172;17.196;2022-12-07T03:03:17;100448.06;;;-5.66;77.75
61568;BME280;47462;59.172;17.196;2022-12-07T03:08:33;100439.28;;;-5.75;77.95
61568;BME280;47462;59.172;17.196;2022-12-07T03:11:03;100480.47;;;-5.59;78.03
61568;BME280;47462;59.172;17.196;2022-12-07T03:13:34;100469.44;;;-5.60;77.97
61568;BME280;47462;59.172;17.196;2022-12-07T03:16:12;100473.63;;;-5.62;77.89
61568;BME280;47462;59.172;17.196;2022-12-07T03:21:38;100420.22;;;-5.87;77.98
61568;BME280;47462;59.172;17.196;2022-12-07T03:24:12;100411.53;;;-5.94;77.68
61568;BME280;47462;59.172;17.196;2022-12-07T03:26:44;100478.59;;;-5.65;77.88
61568;BME280;47462;59.172;17.196;2022-12-07T03:29:20;100438.97;;;-5.84;78.16
61568;BME280;47462;59.172;17.196;2022-12-07T03:31:54;100466.00;;;-5.62;78.26
61568;BME280;47462;59.172;17.196;2022-12-07T03:34:32;100458.38;;;-5.62;78.15
61568;BME280;47462;59.172;17.196;2022-12-07T03:37:34;100461.81;;;-5.60;78.14
61568;BME280;47462;59.172;17.196;2022-12-07T03:40:11;100456.88;;;-5.55;78.01
61568;BME280;47462;59.172;17.196;2022-12-07T03:42:38;100455.13;;;-5.56;78.24
61568;BME280;47462;59.172;17.196;2022-12-07T03:45:05;100461.97;;;-5.55;77.97
61568;BME280;47462;59.172;17.196;2022-12-07T03:50:09;100373.00;;;-6.08;77.94
61568;BME280;47462;59.172;17.196;2022-12-07T03:52:53;100413.72;;;-5.79;77.92
61568;BME280;47462;59.172;17.196;2022-12-07T03:55:25;100452.75;;;-5.51;78.01
61568;BME280;47462;59.172;17.196;2022-12-07T03:57:56;100445.25;;;-5.47;77.88
61568;BME280;47462;59.172;17.196;2022-12-07T04:00:25;100447.00;;;-5.46;77.79
61568;BME280;47462;59.172;17.196;2022-12-07T04:02:51;100438.41;;;-5.49;77.70
61568;BME280;47462;59.172;17.196;2022-12-07T04:05:17;100368.00;;;-5.78;77.81
61568;BME280;47462;59.172;17.196;2022-12-07T04:07:43;100393.97;;;-5.61;77.63
61568;BME280;47462;59.172;17.196;2022-12-07T04:10:09;100410.59;;;-5.45;77.79
61568;BME280;47462;59.172;17.196;2022-12-07T04:12:34;100403.72;;;-5.47;77.73
61568;BME280;47462;59.172;17.196;2022-12-07T04:14:59;100392.88;;;-5.42;77.69
61568;BME280;47462;59.172;17.196;2022-12-07T04:17:25;100388.66;;;-5.41;77.97
61568;BME280;47462;59.172;17.196;2022-12-07T04:19:50;100418.28;;;-5.16;77.82
61568;BME280;47462;59.172;17.196;2022-12-07T04:22:16;100413.31;;;-5.11;77.76
61568;BME280;47462;59.172;17.196;2022-12-07T04:24:41;100382.41;;;-5.24;78.00
61568;BME280;47462;59.172;17.196;2022-12-07T04:27:06;100406.75;;;-5.03;77.74
61568;BME280;47462;59.172;17.196;2022-12-07T04:29:32;100406.94;;;-4.97;78.24
61568;BME280;47462;59.172;17.196;2022-12-07T04:31:57;100357.06;;;-5.21;77.84
61568;BME280;47462;59.172;17.196;2022-12-07T04:34:23;100317.66;;;-5.33;78.24
61568;BME280;47462;59.172;17.196;2022-12-07T04:36:48;100405.81;;;-4.76;77.76
61568;BME280;47462;59.172;17.196;2022-12-07T04:39:26;100377.56;;;-4.86;77.66
61568;BME280;47462;59.172;17.196;2022-12-07T04:41:53;100238.72;;;-5.67;77.69
61568;BME280;47462;59.172;17.196;2022-12-07T04:44:19;100388.94;;;-4.74;78.27
61568;BME280;47462;59.172;17.196;2022-12-07T04:46:45;100393.41;;;-4.66;78.15
61568;BME280;47462;59.172;17.196;2022-12-07T04:49:11;100390.22;;;-4.58;78.14
61568;BME280;47462;59.172;17.196;2022-12-07T04:51:37;100378.28;;;-4.61;77.60
61568;BME280;47462;59.172;17.196;2022-12-07T04:54:02;100360.25;;;-4.67;78.08
61568;BME280;47462;59.172;17.196;2022-12-07T04:56:28;100381.75;;;-4.57;77.92
61568;BME280;47462;59.172;17.196;2022-12-07T04:58:54;100375.03;;;-4.55;77.81
61568;BME280;47462;59.172;17.196;2022-12-07T05:01:20;100364.66;;;-4.61;77.76
61568;BME280;47462;59.172;17.196;2022-12-07T05:03:46;100384.19;;;-4.62;78.03
61568;BME280;47462;59.172;17.196;2022-12-07T05:06:12;100368.91;;;-4.62;78.38
61568;BME280;47462;59.172;17.196;2022-12-07T05:08:39;100381.06;;;-4.52;78.13
61568;BME280;47462;59.172;17.196;2022-12-07T05:11:05;100375.97;;;-4.52;78.32
61568;BME280;47462;59.172;17.196;2022-12-07T05:13:31;100360.34;;;-4.64;77.94
61568;BME280;47462;59.172;17.196;2022-12-07T05:15:57;100362.88;;;-4.64;78.29
61568;BME280;47462;59.172;17.196;2022-12-07T05:18:22;100371.69;;;-4.53;78.66
61568;BME280;47462;59.172;17.196;2022-12-07T05:20:48;100318.16;;;-4.86;78.87
61568;BME280;47462;59.172;17.196;2022-12-07T05:23:16;100370.16;;;-4.46;78.67
61568;BME280;47462;59.172;17.196;2022-12-07T05:25:41;100367.81;;;-4.38;78.75
61568;BME280;47462;59.172;17.196;2022-12-07T05:28:06;100369.59;;;-4.36;78.17
61568;BME280;47462;59.172;17.196;2022-12-07T05:30:32;100292.09;;;-4.77;78.40
61568;BME280;47462;59.172;17.196;2022-12-07T05:32:57;100364.72;;;-4.28;78.52
61568;BME280;47462;59.172;17.196;2022-12-07T05:35:23;100339.75;;;-4.40;78.34
61568;BME280;47462;59.172;17.196;2022-12-07T05:37:48;100369.16;;;-4.21;78.71
61568;BME280;47462;59.172;17.196;2022-12-07T05:40:14;100335.41;;;-4.45;78.68
61568;BME280;47462;59.172;17.196;2022-12-07T05:42:40;100368.00;;;-4.32;78.71
61568;BME280;47462;59.172;17.196;2022-12-07T05:45:07;100348.50;;;-4.32;78.73
61568;BME280;47462;59.172;17.196;2022-12-07T05:47:32;100383.78;;;-4.12;78.60
61568;BME280;47462;59.172;17.196;2022-12-07T05:49:58;100340.19;;;-4.23;78.60
61568;BME280;47462;59.172;17.196;2022-12-07T05:52:23;100374.78;;;-3.99;78.73
61568;BME280;47462;59.172;17.196;2022-12-07T05:54:52;100269.56;;;-4.63;78.88
61568;BME280;47462;59.172;17.196;2022-12-07T05:57:18;100382.59;;;-3.93;78.84
61568;BME280;47462;59.172;17.196;2022-12-07T05:59:44;100328.50;;;-4.16;78.88
61568;BME280;47462;59.172;17.196;2022-12-07T06:02:12;100350.03;;;-4.03;79.33
61568;BME280;47462;59.172;17.196;2022-12-07T06:04:39;100330.66;;;-3.97;79.44
61568;BME280;47462;59.172;17.196;2022-12-07T06:07:05;100294.63;;;-4.10;79.04
61568;BME280;47462;59.172;17.196;2022-12-07T06:09:31;100371.41;;;-3.63;79.26
61568;BME280;47462;59.172;17.196;2022-12-07T06:11:57;100367.22;;;-3.61;79.21
61568;BME280;47462;59.172;17.196;2022-12-07T06:14:42;100302.50;;;-4.01;79.27
61568;BME280;47462;59.172;17.196;2022-12-07T06:17:07;100311.13;;;-3.96;79.14
61568;BME280;47462;59.172;17.196;2022-12-07T06:19:33;100345.72;;;-3.71;79.37
61568;BME280;47462;59.172;17.196;2022-12-07T06:21:59;100360.47;;;-3.58;79.50
61568;BME280;47462;59.172;17.196;2022-12-07T06:24:24;100356.88;;;-3.67;79.39
61568;BME280;47462;59.172;17.196;2022-12-07T06:26:50;100309.19;;;-4.06;79.55
61568;BME280;47462;59.172;17.196;2022-12-07T06:29:17;100345.69;;;-3.72;79.62
61568;BME280;47462;59.172;17.196;2022-12-07T06:31:43;100370.81;;;-3.51;79.80
61568;BME280;47462;59.172;17.196;2022-12-07T06:34:16;100335.50;;;-3.71;79.57
61568;BME280;47462;59.172;17.196;2022-12-07T06:36:43;100373.28;;;-3.56;79.79
61568;BME280;47462;59.172;17.196;2022-12-07T06:39:08;100373.34;;;-3.53;79.75
61568;BME280;47462;59.172;17.196;2022-12-07T06:41:36;100380.06;;;-3.56;79.96
61568;BME280;47462;59.172;17.196;2022-12-07T06:44:03;100356.66;;;-3.77;79.62
61568;BME280;47462;59.172;17.196;2022-12-07T06:46:28;100372.09;;;-3.70;79.74
61568;BME280;47462;59.172;17.196;2022-12-07T06:48:54;100328.25;;;-3.92;79.60
61568;BME280;47462;59.172;17.196;2022-12-07T06:51:19;100370.47;;;-3.67;79.74
61568;BME280;47462;59.172;17.196;2022-12-07T06:53:45;100275.69;;;-4.22;79.81
61568;BME280;47462;59.172;17.196;2022-12-07T06:56:10;100311.06;;;-3.99;79.70
61568;BME280;47462;59.172;17.196;2022-12-07T06:58:35;100353.31;;;-3.72;79.56
61568;BME280;47462;59.172;17.196;2022-12-07T07:01:01;100370.72;;;-3.56;80.01
61568;BME280;47462;59.172;17.196;2022-12-07T07:03:26;100357.69;;;-3.68;79.93
61568;BME280;47462;59.172;17.196;2022-12-07T07:05:52;100371.53;;;-3.57;79.84
61568;BME280;47462;59.172;17.196;2022-12-07T07:08:17;100376.56;;;-3.60;79.90
61568;BME280;47462;59.172;17.196;2022-12-07T07:10:42;100358.31;;;-3.77;79.55
61568;BME280;47462;59.172;17.196;2022-12-07T07:13:08;100372.31;;;-3.61;79.71
61568;BME280;47462;59.172;17.196;2022-12-07T07:15:34;100373.28;;;-3.56;80.01
61568;BME280;47462;59.172;17.196;2022-12-07T07:18:00;100367.44;;;-3.52;80.04
61568;BME280;47462;59.172;17.196;2022-12-07T07:20:26;100354.47;;;-3.61;79.63
61568;BME280;47462;59.172;17.196;2022-12-07T07:22:56;100277.56;;;-4.15;79.94
61568;BME280;47462;59.172;17.196;2022-12-07T07:25:21;100311.06;;;-3.99;80.05
61568;BME280;47462;59.172;17.196;2022-12-07T07:27:46;100378.34;;;-3.58;79.85
61568;BME280;47462;59.172;17.196;2022-12-07T07:30:13;100376.72;;;-3.54;79.66
61568;BME280;47462;59.172;17.196;2022-12-07T07:32:39;100197.31;;;-4.67;79.16
61568;BME280;47462;59.172;17.196;2022-12-07T07:35:04;100380.06;;;-3.56;79.25
61568;BME280;47462;59.172;17.196;2022-12-07T07:37:30;100381.66;;;-3.60;79.16
61568;BME280;47462;59.172;17.196;2022-12-07T07:39:56;100340.78;;;-4.00;78.99
61568;BME280;47462;59.172;17.196;2022-12-07T07:42:21;100344.50;;;-3.87;79.08
61568;BME280;47462;59.172;17.196;2022-12-07T07:44:47;100355.50;;;-3.88;79.04
61568;BME280;47462;59.172;17.196;2022-12-07T07:47:12;100378.75;;;-3.76;78.55
61568;BME280;47462;59.172;17.196;2022-12-07T07:49:38;100379.53;;;-3.80;79.02
61568;BME280;47462;59.172;17.196;2022-12-07T07:52:05;100325.53;;;-4.33;79.05
61568;BME280;47462;59.172;17.196;2022-12-07T07:54:31;100362.72;;;-4.06;79.09
61568;BME280;47462;59.172;17.196;2022-12-07T07:56:56;100278.13;;;-4.60;78.89
61568;BME280;47462;59.172;17.196;2022-12-07T07:59:21;100358.16;;;-4.18;78.62
61568;BME280;47462;59.172;17.196;2022-12-07T08:01:47;100347.00;;;-4.23;78.43
61568;BME280;47462;59.172;17.196;2022-12-07T08:04:13;100394.34;;;-3.98;78.70
61568;BME280;47462;59.172;17.196;2022-12-07T08:06:38;100359.00;;;-4.19;78.21
61568;BME280;47462;59.172;17.196;2022-12-07T08:09:03;100382.28;;;-4.05;78.18
61568;BME280;47462;59.172;17.196;2022-12-07T08:11:31;100380.53;;;-4.06;78.17
61568;BME280;47462;59.172;17.196;2022-12-07T08:13:56;100377.09;;;-4.08;78.31
61568;BME280;47462;59.172;17.196;2022-12-07T08:16:21;100381.13;;;-4.17;78.34
61568;BME280;47462;59.172;17.196;2022-12-07T08:18:47;100371.53;;;-4.27;78.03
61568;BME280;47462;59.172;17.196;2022-12-07T08:21:14;100382.66;;;-4.23;78.05
61568;BME280;47462;59.172;17.196;2022-12-07T08:23:39;100388.63;;;-4.23;78.25
61568;BME280;47462;59.172;17.196;2022-12-07T08:26:11;100378.34;;;-4.26;78.06
61568;BME280;47462;59.172;17.196;2022-12-07T08:28:37;100317.00;;;-4.66;78.06
61568;BME280;47462;59.172;17.196;2022-12-07T08:31:16;100324.63;;;-4.67;77.92
61568;BME280;47462;59.172;17.196;2022-12-07T08:33:44;100375.38;;;-4.41;77.94
61568;BME280;47462;59.172;17.196;2022-12-07T08:36:11;100379.72;;;-4.39;77.66
61568;BME280;47462;59.172;17.196;2022-12-07T08:38:41;100379.63;;;-4.42;77.98
61568;BME280;47462;59.172;17.196;2022-12-07T08:41:07;100373.81;;;-4.38;77.88
61568;BME280;47462;59.172;17.196;2022-12-07T08:43:34;100383.28;;;-4.32;77.76
61568;BME280;47462;59.172;17.196;2022-12-07T08:48:43;100374.66;;;-4.37;77.38
61568;BME280;47462;59.172;17.196;2022-12-07T08:51:10;100344.56;;;-4.51;77.24
61568;BME280;47462;59.172;17.196;2022-12-07T08:53:37;100379.75;;;-4.37;77.49
61568;BME280;47462;59.172;17.196;2022-12-07T08:56:04;100362.56;;;-4.44;77.42
61568;BME280;47462;59.172;17.196;2022-12-07T08:58:30;100374.78;;;-4.33;77.58
61568;BME280;47462;59.172;17.196;2022-12-07T09:00:55;100311.09;;;-4.64;77.72
61568;BME280;47462;59.172;17.196;2022-12-07T09:03:21;100344.88;;;-4.40;77.27
61568;BME280;47462;59.172;17.196;2022-12-07T09:05:47;100354.44;;;-4.31;77.57
61568;BME280;47462;59.172;17.196;2022-12-07T09:08:12;100288.03;;;-4.71;77.42
61568;BME280;47462;59.172;17.196;2022-12-07T09:10:38;100326.88;;;-4.46;77.40
61568;BME280;47462;59.172;17.196;2022-12-07T09:13:03;100295.75;;;-4.68;77.38
61568;BME280;47462;59.172;17.196;2022-12-07T09:15:29;100375.72;;;-4.29;77.01
61568;BME280;47462;59.172;17.196;2022-12-07T09:17:55;100256.97;;;-4.91;77.02
61568;BME280;47462;59.172;17.196;2022-12-07T09:20:21;100351.03;;;-4.32;77.21
61568;BME280;47462;59.172;17.196;2022-12-07T09:22:46;100361.44;;;-4.24;77.47
61568;BME280;47462;59.172;17.196;2022-12-07T09:25:12;100363.94;;;-4.25;76.94
61568;BME280;47462;59.172;17.196;2022-12-07T09:27:37;100267.94;;;-4.92;77.23
61568;BME280;47462;59.172;17.196;2022-12-07T09:30:05;100367.34;;;-4.25;77.24
61568;BME280;47462;59.172;17.196;2022-12-07T09:32:30;100342.50;;;-4.32;77.19
61568;BME280;47462;59.172;17.196;2022-12-07T09:34:56;100323.78;;;-4.34;77.28
61568;BME280;47462;59.172;17.196;2022-12-07T09:37:21;100357.50;;;-4.11;77.00
61568;BME280;47462;59.172;17.196;2022-12-07T09:39:47;100350.28;;;-4.27;77.20
61568;BME280;47462;59.172;17.196;2022-12-07T09:44:51;100356.50;;;-4.18;77.06
61568;BME280;47462;59.172;17.196;2022-12-07T09:47:17;100322.13;;;-4.32;77.58
61568;BME280;47462;59.172;17.196;2022-12-07T09:49:42;100329.97;;;-4.24;77.47
61568;BME280;47462;59.172;17.196;2022-12-07T09:54:41;100338.53;;;-4.22;77.25
61568;BME280;47462;59.172;17.196;2022-12-07T09:57:10;100327.06;;;-4.38;77.28
61568;BME280;47462;59.172;17.196;2022-12-07T09:59:37;100294.69;;;-4.44;77.01
61568;BME280;47462;59.172;17.196;2022-12-07T10:02:40;100331.63;;;-4.26;76.88
61568;BME280;47462;59.172;17.196;2022-12-07T10:05:12;100339.22;;;-4.28;77.03
61568;BME280;47462;59.172;17.196;2022-12-07T10:07:38;100318.41;;;-4.45;76.78
61568;BME280;47462;59.172;17.196;2022-12-07T10:10:09;100339.91;;;-4.34;76.88
61568;BME280;47462;59.172;17.196;2022-12-07T10:16:05;100334.56;;;-4.44;76.85
61568;BME280;47462;59.172;17.196;2022-12-07T10:18:36;100340.38;;;-4.50;77.10
61568;BME280;47462;59.172;17.196;2022-12-07T10:23:34;100319.97;;;-4.52;77.28
61568;BME280;47462;59.172;17.196;2022-12-07T10:26:26;100321.38;;;-4.61;76.93
61568;BME280;47462;59.172;17.196;2022-12-07T10:28:53;100328.47;;;-4.50;77.13
61568;BME280;47462;59.172;17.196;2022-12-07T10:31:21;100328.56;;;-4.46;77.14
61568;BME280;47462;59.172;17.196;2022-12-07T10:33:53;100321.00;;;-4.43;77.40
61568;BME280;47462;59.172;17.196;2022-12-07T10:36:27;100319.38;;;-4.40;77.28
61568;BME280;47462;59.172;17.196;2022-12-07T10:41:29;100319.28;;;-4.44;77.26
61568;BME280;47462;59.172;17.196;2022-12-07T10:43:57;100305.66;;;-4.46;77.28
61568;BME280;47462;59.172;17.196;2022-12-07T10:49:07;100294.56;;;-4.49;77.44
61568;BME280;47462;59.172;17.196;2022-12-07T10:51:47;100305.00;;;-4.39;77.31
61568;BME280;47462;59.172;17.196;2022-12-07T10:57:32;100286.31;;;-4.38;77.12
61568;BME280;47462;59.172;17.196;2022-12-07T11:00:57;100225.22;;;-4.70;77.50
61568;BME280;47462;59.172;17.196;2022-12-07T11:03:29;100265.56;;;-4.54;77.56
61568;BME280;47462;59.172;17.196;2022-12-07T11:06:13;100271.22;;;-4.31;77.65
61568;BME280;47462;59.172;17.196;2022-12-07T11:08:47;100271.25;;;-4.29;77.75
61568;BME280;47462;59.172;17.196;2022-12-07T11:11:27;100260.91;;;-4.35;77.49
61568;BME280;47462;59.172;17.196;2022-12-07T11:14:10;100251.41;;;-4.42;77.43
61568;BME280;47462;59.172;17.196;2022-12-07T11:19:52;100263.38;;;-4.38;77.86
61568;BME280;47462;59.172;17.196;2022-12-07T11:22:33;100256.69;;;-4.35;77.52
61568;BME280;47462;59.172;17.196;2022-12-07T11:25:17;100269.28;;;-4.41;77.53
61568;BME280;47462;59.172;17.196;2022-12-07T11:30:57;100254.03;;;-4.39;77.69
61568;BME280;47462;59.172;17.196;2022-12-07T11:38:47;100241.47;;;-4.33;77.47
61568;BME280;47462;59.172;17.196;2022-12-07T11:41:21;100241.41;;;-4.35;77.39
61568;BME280;47462;59.172;17.196;2022-12-07T11:44:00;100238.03;;;-4.34;77.39
61568;BME280;47462;59.172;17.196;2022-12-07T11:46:40;100240.59;;;-4.32;77.61
61568;BME280;47462;59.172;17.196;2022-12-07T11:49:19;100247.50;;;-4.28;77.48
61568;BME280;47462;59.172;17.196;2022-12-07T11:51:49;100151.31;;;-4.73;77.39
61568;BME280;47462;59.172;17.196;2022-12-07T11:54:26;100232.28;;;-4.25;77.38
61568;BME280;47462;59.172;17.196;2022-12-07T11:56:56;100233.13;;;-4.26;77.03
61568;BME280;47462;59.172;17.196;2022-12-07T11:59:48;100208.00;;;-4.47;77.36
61568;BME280;47462;59.172;17.196;2022-12-07T12:02:21;100224.50;;;-4.31;77.37
61568;BME280;47462;59.172;17.196;2022-12-07T12:05:02;100227.88;;;-4.32;77.46
61568;BME280;47462;59.172;17.196;2022-12-07T12:07:31;100210.78;;;-4.38;77.47
61568;BME280;47462;59.172;17.196;2022-12-07T12:10:02;100216.22;;;-4.22;77.58
61568;BME280;47462;59.172;17.196;2022-12-07T12:15:35;100124.03;;;-4.80;77.33
61568;BME280;47462;59.172;17.196;2022-12-07T12:20:58;100159.50;;;-4.52;77.36
61568;BME280;47462;59.172;17.196;2022-12-07T12:23:41;100206.06;;;-4.21;77.30
61568;BME280;47462;59.172;17.196;2022-12-07T12:26:17;100210.41;;;-4.17;77.32
61568;BME280;47462;59.172;17.196;2022-12-07T12:33:50;100200.03;;;-4.24;77.12
61568;BME280;47462;59.172;17.196;2022-12-07T12:39:18;100195.78;;;-4.25;77.60
61568;BME280;47462;59.172;17.196;2022-12-07T12:57:35;100167.41;;;-4.41;77.42
61568;BME280;47462;59.172;17.196;2022-12-07T13:00:16;100187.22;;;-4.27;77.51
61568;BME280;47462;59.172;17.196;2022-12-07T13:02:53;100191.53;;;-4.25;77.57
61568;BME280;47462;59.172;17.196;2022-12-07T13:05:22;100186.50;;;-4.22;77.39
61568;BME280;47462;59.172;17.196;2022-12-07T13:07:54;100195.78;;;-4.25;77.50
61568;BME280;47462;59.172;17.196;2022-12-07T13:23:29;100151.28;;;-4.75;77.49
61568;BME280;47462;59.172;17.196;2022-12-07T13:28:40;100207.28;;;-4.41;77.19
61568;BME280;47462;59.172;17.196;2022-12-07T13:33:47;100185.66;;;-4.59;77.40
61568;BME280;47462;59.172;17.196;2022-12-07T13:36:33;100129.50;;;-4.98;77.41
61568;BME280;47462;59.172;17.196;2022-12-07T13:39:20;100200.97;;;-4.57;77.69
61568;BME280;47462;59.172;17.196;2022-12-07T13:41:52;100200.06;;;-4.59;77.78
61568;BME280;47462;59.172;17.196;2022-12-07T13:44:18;100195.59;;;-4.68;77.83
61568;BME280;47462;59.172;17.196;2022-12-07T13:47:05;100193.97;;;-4.64;77.58
61568;BME280;47462;59.172;17.196;2022-12-07T13:49:38;100161.97;;;-4.90;77.45
61568;BME280;47462;59.172;17.196;2022-12-07T13:52:15;100136.09;;;-5.07;77.36
61568;BME280;47462;59.172;17.196;2022-12-07T13:55:14;100202.22;;;-4.75;77.37
61568;BME280;47462;59.172;17.196;2022-12-07T13:57:55;100199.66;;;-4.75;77.57
61568;BME280;47462;59.172;17.196;2022-12-07T14:00:21;100194.31;;;-4.86;78.03
61568;BME280;47462;59.172;17.196;2022-12-07T14:05:40;100190.16;;;-4.82;77.71
61568;BME280;47462;59.172;17.196;2022-12-07T14:13:36;99951.94;;;-6.77;77.53
61568;BME280;47462;59.172;17.196;2022-12-07T14:18:44;100080.78;;;-5.79;77.68
61568;BME280;47462;59.172;17.196;2022-12-07T14:23:36;100192.13;;;-5.05;77.73
61568;BME280;47462;59.172;17.196;2022-12-07T14:26:19;100184.50;;;-5.05;77.87
61568;BME280;47462;59.172;17.196;2022-12-07T14:28:45;100189.66;;;-5.02;77.70
61568;BME280;47462;59.172;17.196;2022-12-07T14:31:16;100151.91;;;-5.18;77.88
61568;BME280;47462;59.172;17.196;2022-12-07T14:33:42;100178.47;;;-5.07;77.68
61568;BME280;47462;59.172;17.196;2022-12-07T14:36:12;100172.53;;;-5.08;77.83
61568;BME280;47462;59.172;17.196;2022-12-07T14:38:38;100182.75;;;-5.06;77.80
61568;BME280;47462;59.172;17.196;2022-12-07T14:41:04;100164.00;;;-5.10;78.08
61568;BME280;47462;59.172;17.196;2022-12-07T14:43:50;100146.75;;;-5.22;78.06
61568;BME280;47462;59.172;17.196;2022-12-07T14:46:16;100168.97;;;-5.14;77.87
61568;BME280;47462;59.172;17.196;2022-12-07T14:48:41;100164.72;;;-5.15;77.91